createdAt,value
2018-05-07T00:00:00.971Z,16.07
2018-05-07T00:02:29.132Z,16.05
2018-05-07T00:04:57.301Z,16.01
2018-05-07T00:07:25.521Z,16.05
2018-05-07T00:09:53.692Z,15.99
2018-05-07T00:12:21.881Z,15.91
2018-05-07T00:14:50.820Z,15.85
2018-05-07T00:17:18.992Z,15.82
2018-05-07T00:19:47.157Z,15.79
2018-05-07T00:22:15.321Z,15.81
2018-05-07T00:24:43.485Z,15.83
2018-05-07T00:27:12.429Z,15.81
2018-05-07T00:29:40.603Z,15.80
2018-05-07T00:32:08.782Z,15.81
2018-05-07T00:34:36.968Z,15.77
2018-05-07T00:37:05.169Z,15.70
2018-05-07T00:39:34.108Z,15.68
2018-05-07T00:42:02.308Z,15.63
2018-05-07T00:44:30.501Z,15.58
2018-05-07T00:46:59.486Z,15.61
2018-05-07T00:49:27.657Z,15.57
2018-05-07T00:51:55.856Z,15.53
2018-05-07T00:54:24.794Z,15.48
2018-05-07T00:56:52.971Z,15.51
2018-05-07T00:59:21.140Z,15.44
2018-05-07T01:01:49.308Z,15.40
2018-05-07T01:04:17.469Z,15.35
2018-05-07T01:06:45.658Z,15.35
2018-05-07T01:09:13.833Z,15.35
2018-05-07T01:11:42.006Z,15.39
2018-05-07T01:14:10.179Z,15.37
2018-05-07T01:16:38.370Z,15.36
2018-05-07T01:19:06.537Z,15.35
2018-05-07T01:21:34.710Z,15.28
2018-05-07T01:24:02.878Z,15.24
2018-05-07T01:26:31.089Z,15.22
2018-05-07T01:28:59.255Z,15.14
2018-05-07T01:31:27.416Z,15.12
2018-05-07T01:33:55.593Z,15.14
2018-05-07T01:36:23.761Z,15.10
2018-05-07T01:38:51.940Z,15.11
2018-05-07T01:41:20.116Z,15.06
2018-05-07T01:43:48.283Z,15.06
2018-05-07T01:46:16.478Z,15.10
2018-05-07T01:48:44.665Z,15.02
2018-05-07T01:51:12.838Z,14.95
2018-05-07T01:53:41.005Z,14.94
2018-05-07T01:56:09.176Z,14.90
2018-05-07T01:58:37.369Z,14.89
2018-05-07T02:01:05.548Z,14.93
2018-05-07T02:03:33.769Z,14.93
2018-05-07T02:06:01.961Z,14.97
2018-05-07T02:08:30.133Z,14.88
2018-05-07T02:10:58.313Z,14.80
2018-05-07T02:13:26.482Z,14.78
2018-05-07T02:15:54.661Z,14.76
2018-05-07T02:18:22.834Z,14.87
2018-05-07T02:20:51.005Z,14.79
2018-05-07T02:23:19.182Z,14.78
2018-05-07T02:25:47.347Z,14.79
2018-05-07T02:28:15.525Z,14.80
2018-05-07T02:30:43.696Z,14.78
2018-05-07T02:33:11.878Z,14.73
2018-05-07T02:35:40.090Z,14.72
2018-05-07T02:38:09.038Z,14.65
2018-05-07T02:40:37.209Z,14.68
2018-05-07T02:43:05.403Z,14.75
2018-05-07T02:45:33.578Z,14.82
2018-05-07T02:48:01.744Z,14.78
2018-05-07T02:50:29.988Z,14.89
2018-05-07T02:52:58.102Z,14.92
2018-05-07T02:55:26.277Z,14.90
2018-05-07T02:57:54.457Z,14.92
2018-05-07T03:00:22.653Z,14.68
2018-05-07T03:02:50.825Z,14.53
2018-05-07T03:05:19.781Z,14.44
2018-05-07T03:07:47.998Z,14.38
2018-05-07T03:10:16.953Z,14.41
2018-05-07T03:12:45.137Z,14.41
2018-05-07T03:15:13.338Z,14.39
2018-05-07T03:17:42.289Z,14.43
2018-05-07T03:20:10.468Z,14.45
2018-05-07T03:22:38.645Z,14.46
2018-05-07T03:25:06.826Z,14.46
2018-05-07T03:27:35.003Z,14.43
2018-05-07T03:30:03.173Z,14.35
2018-05-07T03:32:31.372Z,14.36
2018-05-07T03:35:00.300Z,14.36
2018-05-07T03:37:28.473Z,14.40
2018-05-07T03:39:56.649Z,14.33
2018-05-07T03:42:24.816Z,14.34
2018-05-07T03:44:53.753Z,14.26
2018-05-07T03:47:21.960Z,14.17
2018-05-07T03:49:50.136Z,14.20
2018-05-07T03:52:18.309Z,14.18
2018-05-07T03:54:46.484Z,14.19
2018-05-07T03:57:15.533Z,14.04
2018-05-07T03:59:43.729Z,13.99
2018-05-07T04:02:11.891Z,13.99
2018-05-07T04:04:40.147Z,14.03
2018-05-07T04:07:09.177Z,14.01
2018-05-07T04:09:38.109Z,14.05
2018-05-07T04:12:07.049Z,14.05
2018-05-07T04:14:35.222Z,14.05
2018-05-07T04:17:21.117Z,14.13
2018-05-07T04:20:07.103Z,14.10
2018-05-07T04:22:53.197Z,14.16
2018-05-07T04:25:21.381Z,14.26
2018-05-07T04:27:49.544Z,14.33
2018-05-07T04:30:17.721Z,14.37
2018-05-07T04:32:45.903Z,14.42
2018-05-07T04:35:14.068Z,14.43
2018-05-07T04:37:42.236Z,14.50
2018-05-07T04:40:10.408Z,14.60
2018-05-07T04:42:38.577Z,14.61
2018-05-07T04:45:06.746Z,14.66
2018-05-07T04:47:34.913Z,14.74
2018-05-07T04:50:03.078Z,14.84
2018-05-07T04:52:32.024Z,14.85
2018-05-07T04:55:00.250Z,14.89
2018-05-07T04:57:28.390Z,14.99
2018-05-07T04:59:56.556Z,14.99
2018-05-07T05:02:24.720Z,15.07
2018-05-07T05:04:52.892Z,15.20
2018-05-07T05:07:21.057Z,15.28
2018-05-07T05:09:49.233Z,15.30
2018-05-07T05:12:17.429Z,15.34
2018-05-07T05:14:45.625Z,15.38
2018-05-07T05:17:14.561Z,15.45
2018-05-07T05:19:42.787Z,15.55
2018-05-07T05:22:10.957Z,15.53
2018-05-07T05:24:39.125Z,15.61
2018-05-07T05:27:07.292Z,15.68
2018-05-07T05:29:35.454Z,15.73
2018-05-07T05:32:03.619Z,15.81
2018-05-07T05:34:31.816Z,15.84
2018-05-07T05:37:00.041Z,15.87
2018-05-07T05:39:31.439Z,15.95
2018-05-07T05:42:05.700Z,15.96
2018-05-07T05:44:36.622Z,16.09
2018-05-07T05:47:05.558Z,16.13
2018-05-07T05:49:35.044Z,16.25
2018-05-07T05:52:03.238Z,16.28
2018-05-07T05:54:31.412Z,16.42
2018-05-07T05:56:59.588Z,16.56
2018-05-07T05:59:27.801Z,16.69
2018-05-07T06:01:56.937Z,16.71
2018-05-07T06:04:25.115Z,16.68
2018-05-07T06:06:53.288Z,16.78
2018-05-07T06:09:21.486Z,16.70
2018-05-07T06:11:49.665Z,16.90
2018-05-07T06:14:17.837Z,16.96
2018-05-07T06:16:46.007Z,17.03
2018-05-07T06:19:14.286Z,17.09
2018-05-07T06:21:42.464Z,17.12
2018-05-07T06:24:10.631Z,17.22
2018-05-07T06:26:38.798Z,17.36
2018-05-07T06:29:06.988Z,17.50
2018-05-07T06:31:35.155Z,17.54
2018-05-07T06:34:03.677Z,17.60
2018-05-07T06:36:31.853Z,17.69
2018-05-07T06:39:00.113Z,17.76
2018-05-07T06:41:28.366Z,17.81
2018-05-07T06:43:56.555Z,17.86
2018-05-07T06:46:25.142Z,17.90
2018-05-07T06:48:53.386Z,17.96
2018-05-07T06:51:21.598Z,18.00
2018-05-07T06:53:49.793Z,17.92
2018-05-07T06:56:18.183Z,17.99
2018-05-07T06:58:47.168Z,18.09
2018-05-07T07:01:15.510Z,18.01
2018-05-07T07:03:43.796Z,18.00
2018-05-07T07:06:12.072Z,18.07
2018-05-07T07:08:40.423Z,18.08
2018-05-07T07:11:08.590Z,18.08
2018-05-07T07:13:36.853Z,18.07
2018-05-07T07:16:05.824Z,18.07
2018-05-07T07:18:34.032Z,18.15
2018-05-07T07:21:02.309Z,18.22
2018-05-07T07:23:30.523Z,18.33
2018-05-07T07:25:58.690Z,18.44
2018-05-07T07:28:26.909Z,18.47
2018-05-07T07:30:55.961Z,18.52
2018-05-07T07:33:25.017Z,18.62
2018-05-07T07:35:54.041Z,18.72
2018-05-07T07:38:22.241Z,18.79
2018-05-07T07:40:50.453Z,18.84
2018-05-07T07:43:19.448Z,18.96
2018-05-07T07:45:48.384Z,19.04
2018-05-07T07:48:16.730Z,19.08
2018-05-07T07:50:44.957Z,19.20
2018-05-07T07:53:13.334Z,19.27
2018-05-07T07:55:41.746Z,19.41
2018-05-07T07:58:10.732Z,19.49
2018-05-07T08:00:39.129Z,19.59
2018-05-07T08:03:08.118Z,19.69
2018-05-07T08:05:37.321Z,19.82
2018-05-07T08:08:06.347Z,19.92
2018-05-07T08:10:34.645Z,19.95
2018-05-07T08:13:02.870Z,20.08
2018-05-07T08:15:32.712Z,20.16
2018-05-07T08:18:00.928Z,20.35
2018-05-07T08:20:29.387Z,20.40
2018-05-07T08:22:57.739Z,20.54
2018-05-07T08:25:27.244Z,20.44
2018-05-07T08:27:55.521Z,20.61
2018-05-07T08:30:23.902Z,20.69
2018-05-07T08:32:52.065Z,20.73
2018-05-07T08:35:20.485Z,20.94
2018-05-07T08:37:49.869Z,21.10
2018-05-07T08:40:18.188Z,21.27
2018-05-07T08:42:46.409Z,21.52
2018-05-07T08:45:14.682Z,21.62
2018-05-07T08:47:43.015Z,21.58
2018-05-07T08:50:11.289Z,21.60
2018-05-07T08:52:39.606Z,21.77
2018-05-07T08:55:08.537Z,21.92
2018-05-07T08:57:36.841Z,22.03
2018-05-07T09:00:05.141Z,22.21
2018-05-07T09:02:34.123Z,22.05
2018-05-07T09:05:02.302Z,21.97
2018-05-07T09:07:30.494Z,22.08
2018-05-07T09:09:59.490Z,22.19
2018-05-07T09:12:28.565Z,22.27
2018-05-07T09:14:57.557Z,22.51
2018-05-07T09:17:26.706Z,22.49
2018-05-07T09:19:55.429Z,22.32
2018-05-07T09:22:23.605Z,22.62
2018-05-07T09:24:51.907Z,23.01
2018-05-07T09:27:20.169Z,22.95
2018-05-07T09:29:48.348Z,22.66
2018-05-07T09:32:17.290Z,22.68
2018-05-07T09:34:45.511Z,22.90
2018-05-07T09:37:14.518Z,23.13
2018-05-07T09:39:43.552Z,23.54
2018-05-07T09:42:11.886Z,24.01
2018-05-07T09:44:40.883Z,24.04
2018-05-07T09:47:09.929Z,23.80
2018-05-07T09:49:38.145Z,23.95
2018-05-07T09:52:06.469Z,24.23
2018-05-07T09:54:34.752Z,24.38
2018-05-07T09:57:02.961Z,24.48
2018-05-07T09:59:31.222Z,24.67
2018-05-07T10:01:59.443Z,24.97
2018-05-07T10:04:28.432Z,25.35
2018-05-07T10:06:57.368Z,25.40
2018-05-07T10:09:25.585Z,25.89
2018-05-07T10:11:53.819Z,26.43
2018-05-07T10:14:22.038Z,26.69
2018-05-07T10:16:50.304Z,27.14
2018-05-07T10:19:18.571Z,27.28
2018-05-07T10:21:47.639Z,27.38
2018-05-07T10:24:15.892Z,27.31
2018-05-07T10:26:46.113Z,27.56
2018-05-07T10:29:16.169Z,27.74
2018-05-07T10:31:45.239Z,28.08
2018-05-07T10:34:13.559Z,27.94
2018-05-07T10:36:41.777Z,28.28
2018-05-07T10:39:10.840Z,28.58
2018-05-07T10:41:39.099Z,28.66
2018-05-07T10:44:07.359Z,28.70
2018-05-07T10:46:35.821Z,28.61
2018-05-07T10:49:04.059Z,28.20
2018-05-07T10:51:32.249Z,28.52
2018-05-07T10:54:01.337Z,28.70
2018-05-07T10:56:30.331Z,29.15
2018-05-07T10:58:59.735Z,29.48
2018-05-07T11:01:29.545Z,29.09
2018-05-07T11:03:58.574Z,29.38
2018-05-07T11:06:26.761Z,29.70
2018-05-07T11:08:55.579Z,29.95
2018-05-07T11:11:23.867Z,29.34
2018-05-07T11:13:52.075Z,29.16
2018-05-07T11:16:20.248Z,28.47
2018-05-07T11:18:48.495Z,28.60
2018-05-07T11:21:16.760Z,28.27
2018-05-07T11:23:44.977Z,28.81
2018-05-07T11:26:14.043Z,28.40
2018-05-07T11:28:42.381Z,28.35
2018-05-07T11:31:10.615Z,28.84
2018-05-07T11:33:39.643Z,29.29
2018-05-07T11:36:07.941Z,29.43
2018-05-07T11:38:36.112Z,29.45
2018-05-07T11:41:04.326Z,29.77
2018-05-07T11:43:33.332Z,29.81
2018-05-07T11:46:02.342Z,29.45
2018-05-07T11:48:30.645Z,28.88
2018-05-07T11:50:58.827Z,28.86
2018-05-07T11:53:27.229Z,28.66
2018-05-07T11:55:55.506Z,28.60
2018-05-07T11:58:23.757Z,28.89
2018-05-07T12:00:52.012Z,29.05
2018-05-07T12:03:20.276Z,28.83
2018-05-07T12:05:48.525Z,29.14
2018-05-07T12:08:16.704Z,29.17
2018-05-07T12:10:45.644Z,28.71
2018-05-07T12:13:13.821Z,28.69
2018-05-07T12:15:42.088Z,29.03
2018-05-07T12:18:10.292Z,29.28
2018-05-07T12:20:38.521Z,29.56
2018-05-07T12:23:07.154Z,29.69
2018-05-07T12:25:35.453Z,29.77
2018-05-07T12:28:03.649Z,29.63
2018-05-07T12:30:33.543Z,29.64
2018-05-07T12:33:02.569Z,29.56
2018-05-07T12:35:30.837Z,29.67
2018-05-07T12:37:59.896Z,29.88
2018-05-07T12:40:28.115Z,29.65
2018-05-07T12:42:56.388Z,29.64
2018-05-07T12:45:25.436Z,29.29
2018-05-07T12:47:53.738Z,29.74
2018-05-07T12:50:22.937Z,30.28
2018-05-07T12:52:51.148Z,30.53
2018-05-07T12:55:20.885Z,30.96
2018-05-07T12:57:49.117Z,31.69
2018-05-07T13:00:18.147Z,32.11
2018-05-07T13:02:47.274Z,32.78
2018-05-07T13:05:15.495Z,32.74
2018-05-07T13:07:43.667Z,32.89
2018-05-07T13:10:13.591Z,33.14
2018-05-07T13:12:41.815Z,33.22
2018-05-07T13:15:11.602Z,32.44
2018-05-07T13:17:39.814Z,32.44
2018-05-07T13:20:08.045Z,32.54
2018-05-07T13:22:36.329Z,32.61
2018-05-07T13:25:04.515Z,32.07
2018-05-07T13:27:33.541Z,34.06
2018-05-07T13:30:02.674Z,37.16
2018-05-07T13:32:30.866Z,40.01
2018-05-07T13:34:59.065Z,42.91
2018-05-07T13:37:27.290Z,44.61
2018-05-07T13:39:55.547Z,45.30
2018-05-07T13:42:24.608Z,45.89
2018-05-07T13:44:52.817Z,46.16
2018-05-07T13:47:21.862Z,45.24
2018-05-07T13:49:50.143Z,45.36
2018-05-07T13:52:19.175Z,46.03
2018-05-07T13:54:47.360Z,46.87
2018-05-07T13:57:16.910Z,47.28
2018-05-07T13:59:45.141Z,46.82
2018-05-07T14:02:14.147Z,48.14
2018-05-07T14:04:43.099Z,47.91
2018-05-07T14:07:11.322Z,46.19
2018-05-07T14:09:39.618Z,43.80
2018-05-07T14:12:07.873Z,43.13
2018-05-07T14:14:36.889Z,43.46
2018-05-07T14:17:05.156Z,44.69
2018-05-07T14:19:33.378Z,45.89
2018-05-07T14:22:01.549Z,45.87
2018-05-07T14:27:52.151Z,43.46
2018-05-07T14:30:20.370Z,43.62
2018-05-07T14:32:50.434Z,42.78
2018-05-07T14:35:28.573Z,41.36
2018-05-07T14:37:56.984Z,41.03
2018-05-07T14:40:27.065Z,40.35
2018-05-07T14:42:55.701Z,40.26
2018-05-07T14:45:29.397Z,40.48
2018-05-07T14:47:58.341Z,39.81
2018-05-07T14:50:27.084Z,39.37
2018-05-07T14:52:56.907Z,38.97
2018-05-07T14:55:25.182Z,38.20
2018-05-07T14:57:53.361Z,37.40
2018-05-07T15:00:21.572Z,36.64
2018-05-07T15:02:49.940Z,36.09
2018-05-07T15:05:18.122Z,36.43
2018-05-07T15:07:46.348Z,36.67
2018-05-07T15:10:16.083Z,36.56
2018-05-07T15:12:45.370Z,35.41
2018-05-07T15:15:15.182Z,34.96
2018-05-07T15:17:46.513Z,34.85
2018-05-07T15:20:17.190Z,34.51
2018-05-07T15:22:46.647Z,34.24
2018-05-07T15:25:21.240Z,34.37
2018-05-07T15:27:50.345Z,34.80
2018-05-07T15:30:18.634Z,35.12
2018-05-07T15:32:46.887Z,34.81
2018-05-07T15:35:19.059Z,34.75
2018-05-07T15:37:47.358Z,34.99
2018-05-07T15:40:15.525Z,35.00
2018-05-07T15:42:45.488Z,35.05
2018-05-07T15:45:13.775Z,34.99
2018-05-07T15:47:43.332Z,34.43
2018-05-07T15:50:11.561Z,34.03
2018-05-07T15:52:39.741Z,34.20
2018-05-07T15:55:07.969Z,34.46
2018-05-07T15:57:37.032Z,34.49
2018-05-07T16:00:05.221Z,34.41
2018-05-07T16:02:33.487Z,34.49
2018-05-07T16:05:02.378Z,34.44
2018-05-07T16:07:30.560Z,34.20
2018-05-07T16:09:58.750Z,33.93
2018-05-07T16:12:26.916Z,33.61
2018-05-07T16:14:55.153Z,33.04
2018-05-07T16:17:23.306Z,32.85
2018-05-07T16:19:51.477Z,32.59
2018-05-07T16:22:19.788Z,32.33
2018-05-07T16:24:47.847Z,32.39
2018-05-07T16:27:16.022Z,32.39
2018-05-07T16:29:44.194Z,32.17
2018-05-07T16:32:12.360Z,31.84
2018-05-07T16:34:40.520Z,31.49
2018-05-07T16:37:08.697Z,31.26
2018-05-07T16:39:36.867Z,31.12
2018-05-07T16:42:05.838Z,30.82
2018-05-07T16:44:34.801Z,30.60
2018-05-07T16:47:02.975Z,30.34
2018-05-07T16:49:31.917Z,30.08
2018-05-07T16:52:00.852Z,29.79
2018-05-07T16:54:29.028Z,29.37
2018-05-07T16:56:57.197Z,29.12
2018-05-07T16:59:25.447Z,29.13
2018-05-07T17:01:54.373Z,29.00
2018-05-07T17:04:22.544Z,28.75
2018-05-07T17:06:50.719Z,28.64
2018-05-07T17:09:18.909Z,28.49
2018-05-07T17:11:47.083Z,28.40
2018-05-07T17:14:15.324Z,28.34
2018-05-07T17:16:43.481Z,28.26
2018-05-07T17:19:11.657Z,28.22
2018-05-07T17:21:40.601Z,28.12
2018-05-07T17:24:08.848Z,28.06
2018-05-07T17:26:36.974Z,27.93
2018-05-07T17:29:05.932Z,27.67
2018-05-07T17:31:34.098Z,27.59
2018-05-07T17:34:02.328Z,27.45
2018-05-07T17:36:30.455Z,27.35
2018-05-07T17:38:58.639Z,27.17
2018-05-07T17:41:26.857Z,26.94
2018-05-07T17:43:55.047Z,26.86
2018-05-07T17:46:41.074Z,26.68
2018-05-07T17:49:09.254Z,26.65
2018-05-07T17:51:37.433Z,26.57
2018-05-07T17:54:05.605Z,26.41
2018-05-07T17:56:33.775Z,26.24
2018-05-07T17:59:01.984Z,25.98
2018-05-07T18:01:30.940Z,25.91
2018-05-07T18:04:00.029Z,25.87
2018-05-07T18:06:28.197Z,25.69
2018-05-07T18:08:56.385Z,25.67
2018-05-07T18:11:24.554Z,25.49
2018-05-07T18:13:52.933Z,25.37
2018-05-07T18:16:21.100Z,25.29
2018-05-07T18:18:49.301Z,25.36
2018-05-07T18:21:17.490Z,25.33
2018-05-07T18:23:45.665Z,25.11
2018-05-07T18:26:13.854Z,25.09
2018-05-07T18:28:42.805Z,25.09
2018-05-07T18:31:11.044Z,24.95
2018-05-07T18:33:39.193Z,24.89
2018-05-07T18:36:08.129Z,24.87
2018-05-07T18:38:36.309Z,24.80
2018-05-07T18:41:04.481Z,24.79
2018-05-07T18:43:32.697Z,24.56
2018-05-07T18:46:00.873Z,24.31
2018-05-07T18:48:29.053Z,24.29
2018-05-07T18:50:57.221Z,24.26
2018-05-07T18:53:25.397Z,24.27
2018-05-07T18:55:53.602Z,24.27
2018-05-07T18:58:21.773Z,24.18
2018-05-07T19:00:50.742Z,24.12
2018-05-07T19:03:18.913Z,24.05
2018-05-07T19:05:47.080Z,23.99
2018-05-07T19:08:15.257Z,23.92
2018-05-07T19:10:43.440Z,23.91
2018-05-07T19:13:11.617Z,23.68
2018-05-07T19:15:40.582Z,23.63
2018-05-07T19:18:08.756Z,23.62
2018-05-07T19:20:36.921Z,23.47
2018-05-07T19:23:05.101Z,23.31
2018-05-07T19:25:33.347Z,23.29
2018-05-07T19:28:01.522Z,23.28
2018-05-07T19:30:29.703Z,23.28
2018-05-07T19:32:58.032Z,23.19
2018-05-07T19:35:26.214Z,23.04
2018-05-07T19:37:55.169Z,22.99
2018-05-07T19:40:24.117Z,22.91
2018-05-07T19:42:53.089Z,22.98
2018-05-07T19:45:22.050Z,22.88
2018-05-07T19:47:50.262Z,22.86
2018-05-07T19:50:18.454Z,22.93
2018-05-07T19:52:47.404Z,22.89
2018-05-07T19:55:15.623Z,22.97
2018-05-07T19:57:44.567Z,22.84
2018-05-07T20:00:12.768Z,22.84
2018-05-07T20:02:41.728Z,22.80
2018-05-07T20:05:09.906Z,22.66
2018-05-07T20:07:38.113Z,22.63
2018-05-07T20:10:07.075Z,22.69
2018-05-07T20:12:35.325Z,22.80
2018-05-07T20:15:03.446Z,22.69
2018-05-07T20:17:31.616Z,22.66
2018-05-07T20:19:59.824Z,22.61
2018-05-07T20:22:28.785Z,22.56
2018-05-07T20:24:56.973Z,22.56
2018-05-07T20:27:25.929Z,22.63
2018-05-07T20:29:54.115Z,22.70
2018-05-07T20:32:22.306Z,22.78
2018-05-07T20:34:50.516Z,22.79
2018-05-07T20:37:18.687Z,22.49
2018-05-07T20:39:46.870Z,22.45
2018-05-07T20:42:15.037Z,22.38
2018-05-07T20:44:43.214Z,22.27
2018-05-07T20:47:11.468Z,22.30
2018-05-07T20:49:39.576Z,22.22
2018-05-07T20:52:07.755Z,22.15
2018-05-07T20:54:35.929Z,22.07
2018-05-07T20:57:04.104Z,21.97
2018-05-07T20:59:32.297Z,21.85
2018-05-07T21:02:00.510Z,21.79
2018-05-07T21:04:29.465Z,21.82
2018-05-07T21:06:57.642Z,21.86
2018-05-07T21:09:25.828Z,21.88
2018-05-07T21:11:53.997Z,21.83
2018-05-07T21:14:22.206Z,21.79
2018-05-07T21:16:51.142Z,21.76
2018-05-07T21:19:19.317Z,21.80
2018-05-07T21:21:47.499Z,21.81
2018-05-07T21:24:15.705Z,21.66
2018-05-07T21:26:43.882Z,21.59
2018-05-07T21:29:12.067Z,21.57
2018-05-07T21:31:41.006Z,21.44
2018-05-07T21:34:09.185Z,21.29
2018-05-07T21:36:37.358Z,21.29
2018-05-07T21:39:06.431Z,21.35
2018-05-07T21:41:34.606Z,21.26
2018-05-07T21:44:02.781Z,21.12
2018-05-07T21:46:30.978Z,21.10
2018-05-07T21:48:59.143Z,21.12
2018-05-07T21:51:27.318Z,21.04
2018-05-07T21:53:55.491Z,21.03
2018-05-07T21:56:23.658Z,20.73
2018-05-07T21:58:51.832Z,20.63
2018-05-07T22:01:20.046Z,20.53
2018-05-07T22:03:48.224Z,20.53
2018-05-07T22:06:16.389Z,20.36
2018-05-07T22:08:44.552Z,20.27
2018-05-07T22:11:12.730Z,20.14
2018-05-07T22:13:40.919Z,20.03
2018-05-07T22:16:09.094Z,20.04
2018-05-07T22:18:37.258Z,20.02
2018-05-07T22:21:05.441Z,20.07
2018-05-07T22:23:33.611Z,19.99
2018-05-07T22:26:01.782Z,19.90
2018-05-07T22:28:29.960Z,19.85
2018-05-07T22:30:58.161Z,19.79
2018-05-07T22:33:26.341Z,19.75
2018-05-07T22:35:55.279Z,19.65
2018-05-07T22:38:23.452Z,19.57
2018-05-07T22:40:51.620Z,19.56
2018-05-07T22:43:19.809Z,19.50
2018-05-07T22:45:47.985Z,19.51
2018-05-07T22:48:16.156Z,19.54
2018-05-07T22:50:44.333Z,19.45
2018-05-07T22:53:12.506Z,19.44
2018-05-07T22:55:40.679Z,19.35
2018-05-07T22:58:08.847Z,19.29
2018-05-07T23:00:37.037Z,19.27
2018-05-07T23:03:05.172Z,19.24
2018-05-07T23:05:34.074Z,19.15
2018-05-07T23:08:02.212Z,19.11
2018-05-07T23:10:30.356Z,19.04
2018-05-07T23:12:58.493Z,18.90
2018-05-07T23:15:26.629Z,18.84
2018-05-07T23:17:54.771Z,18.79
2018-05-07T23:20:22.919Z,18.74
2018-05-07T23:22:51.093Z,18.71
2018-05-07T23:25:19.237Z,18.63
2018-05-07T23:27:47.369Z,18.69
2018-05-07T23:30:15.519Z,18.62
2018-05-07T23:32:43.664Z,18.66
2018-05-07T23:35:12.568Z,18.53
2018-05-07T23:37:41.504Z,18.54
2018-05-07T23:40:09.668Z,18.53
2018-05-07T23:42:37.800Z,18.43
2018-05-07T23:45:06.709Z,18.45
2018-05-07T23:47:34.854Z,18.33
2018-05-07T23:50:03.769Z,18.27
2018-05-07T23:52:31.912Z,18.22
2018-05-07T23:55:00.056Z,18.20
2018-05-07T23:57:28.202Z,18.12
2018-05-07T23:59:56.344Z,18.05
